Time;durP1;ratioP1;P1;durP2;ratioP2;P2;SDS_P1;SDS_P2;PMS_P1;PMS_P2;Temp;Humidity;BMP_temperature;BMP_pressure;BME280_temperature;BME280_humidity;BME280_pressure;Samples;Min_cycle;Max_cycle;Signal;HPM_P1;HPM_P2
2022/01/30 00:01:22;;;;;;;0.00;0.00;;;;;;;;;;5054643;28;20254;-61
2022/01/30 00:03:47;;;;;;;0.00;0.00;;;;;;;;;;5054549;28;20500;-61
2022/01/30 00:06:12;;;;;;;0.00;0.00;;;;;;;;;;5054541;28;20063;-61
2022/01/30 00:08:38;;;;;;;0.00;0.00;;;;;;;;;;5054402;28;20044;-61
2022/01/30 00:11:11;;;;;;;0.00;0.00;;;;;;;;;;5054657;28;20511;-61
2022/01/30 00:13:37;;;;;;;0.00;0.00;;;;;;;;;;5054271;28;20249;-60
2022/01/30 00:16:06;;;;;;;0.00;0.00;;;;;;;;;;5054617;28;20017;-60
2022/01/30 00:18:49;;;;;;;0.00;0.00;;;;;;;;;;5054207;28;20063;-61
2022/01/30 00:21:30;;;;;;;0.00;0.00;;;;;;;;;;5054387;28;20021;-60
2022/01/30 00:26:29;;;;;;;0.00;0.00;;;;;;;;;;5054393;28;20371;-61
2022/01/30 00:28:54;;;;;;;0.00;0.00;;;;;;;;;;5054077;28;20349;-61
2022/01/30 00:31:20;;;;;;;0.00;0.00;;;;;;;;;;5053445;28;20032;-61
2022/01/30 00:33:46;;;;;;;0.00;0.00;;;;;;;;;;5054114;28;20026;-60
2022/01/30 00:36:11;;;;;;;0.00;0.00;;;;;;;;;;5054166;28;20024;-60
2022/01/30 00:38:36;;;;;;;0.00;0.00;;;;;;;;;;5036315;28;20028;-60
2022/01/30 00:41:01;;;;;;;0.00;0.00;;;;;;;;;;5054183;28;20025;-61
2022/01/30 00:43:26;;;;;;;0.00;0.00;;;;;;;;;;5053746;28;20035;-60
2022/01/30 00:45:52;;;;;;;0.00;0.00;;;;;;;;;;5053958;28;20059;-61
2022/01/30 00:48:17;;;;;;;0.00;0.00;;;;;;;;;;5053831;28;20017;-60
2022/01/30 00:50:42;;;;;;;0.00;0.00;;;;;;;;;;5053698;28;20100;-60
2022/01/30 00:53:07;;;;;;;0.00;0.00;;;;;;;;;;5053895;28;20269;-60
2022/01/30 00:55:33;;;;;;;0.00;0.00;;;;;;;;;;5053533;28;20052;-60
2022/01/30 00:57:58;;;;;;;0.00;0.00;;;;;;;;;;5053753;28;20199;-61
2022/01/30 01:00:24;;;;;;;0.00;0.00;;;;;;;;;;5053486;28;20032;-60
2022/01/30 01:02:50;;;;;;;0.00;0.00;;;;;;;;;;5053545;28;20021;-61
2022/01/30 01:05:15;;;;;;;0.00;0.00;;;;;;;;;;5053641;28;20057;-61
2022/01/30 01:07:46;;;;;;;0.00;0.00;;;;;;;;;;5053152;28;20467;-60
2022/01/30 01:10:39;;;;;;;0.00;0.00;;;;;;;;;;5053734;28;20079;-61
2022/01/30 01:24:04;;;;;;;0.00;0.00;;;;;;;;;;4914776;29;20051;-60
2022/01/30 01:26:29;;;;;;;0.00;0.00;;;;;;;;;;4914323;29;20539;-60
2022/01/30 01:28:55;;;;;;;0.00;0.00;;;;;;;;;;4914607;29;20140;-60
2022/01/30 01:31:20;;;;;;;0.00;0.00;;;;;;;;;;4914495;29;20108;-60
2022/01/30 01:36:13;;;;;;;0.00;0.00;;;;;;;;;;4914489;29;20016;-61
2022/01/30 01:38:39;;;;;;;0.00;0.00;;;;;;;;;;4914184;29;20039;-60
2022/01/30 01:41:04;;;;;;;0.00;0.00;;;;;;;;;;4914427;29;20259;-60
2022/01/30 01:43:30;;;;;;;0.00;0.00;;;;;;;;;;4914074;29;20429;-60
2022/01/30 01:45:57;;;;;;;0.00;0.00;;;;;;;;;;4914274;29;20048;-61
2022/01/30 01:48:23;;;;;;;0.00;0.00;;;;;;;;;;4914057;29;20356;-61
2022/01/30 01:51:05;;;;;;;0.00;0.00;;;;;;;;;;4914193;29;20024;-60
2022/01/30 01:53:31;;;;;;;0.00;0.00;;;;;;;;;;5035485;28;20476;-60
2022/01/30 01:55:56;;;;;;;0.00;0.00;;;;;;;;;;5052701;28;20074;-60
2022/01/30 01:58:23;;;;;;;0.00;0.00;;;;;;;;;;5052474;28;20036;-60
2022/01/30 02:00:48;;;;;;;0.00;0.00;;;;;;;;;;5052500;28;20013;-60
2022/01/30 02:03:16;;;;;;;0.00;0.00;;;;;;;;;;5052547;28;20021;-60
2022/01/30 02:05:47;;;;;;;0.00;0.00;;;;;;;;;;5051878;28;20048;-60
2022/01/30 02:11:06;;;;;;;0.00;0.00;;;;;;;;;;5052684;28;20063;-61
2022/01/30 02:26:55;;;;;;;0.00;0.00;;;;;;;;;;5052506;28;20452;-60
2022/01/30 02:29:20;;;;;;;0.00;0.00;;;;;;;;;;5052036;28;20155;-61
2022/01/30 02:31:46;;;;;;;0.00;0.00;;;;;;;;;;5051975;28;20246;-61
2022/01/30 02:34:11;;;;;;;0.00;0.00;;;;;;;;;;5052217;28;20203;-60
2022/01/30 02:36:45;;;;;;;0.00;0.00;;;;;;;;;;5051887;28;20009;-61
2022/01/30 02:39:10;;;;;;;0.00;0.00;;;;;;;;;;5052170;28;20377;-60
2022/01/30 02:41:35;;;;;;;0.00;0.00;;;;;;;;;;5051748;28;20108;-61
2022/01/30 02:44:10;;;;;;;0.00;0.00;;;;;;;;;;5051965;28;20025;-61
2022/01/30 02:46:40;;;;;;;0.00;0.00;;;;;;;;;;5051803;28;20024;-61
2022/01/30 02:51:48;;;;;;;0.00;0.00;;;;;;;;;;5051990;28;20052;-61
2022/01/30 02:54:13;;;;;;;0.00;0.00;;;;;;;;;;5055393;28;20075;-61
2022/01/30 02:56:40;;;;;;;0.00;0.00;;;;;;;;;;5055852;28;20460;-60
2022/01/30 02:59:05;;;;;;;0.00;0.00;;;;;;;;;;5056062;28;20594;-60
2022/01/30 03:01:30;;;;;;;0.00;0.00;;;;;;;;;;5055688;28;20020;-60
2022/01/30 03:03:55;;;;;;;0.00;0.00;;;;;;;;;;5055866;28;20385;-60
2022/01/30 03:06:20;;;;;;;0.00;0.00;;;;;;;;;;5055597;28;20277;-61
2022/01/30 03:08:46;;;;;;;0.00;0.00;;;;;;;;;;5055672;28;20404;-61
2022/01/30 03:11:11;;;;;;;0.00;0.00;;;;;;;;;;5055760;28;20063;-60
2022/01/30 03:13:36;;;;;;;0.00;0.00;;;;;;;;;;5055426;28;20029;-60
2022/01/30 03:16:03;;;;;;;0.00;0.00;;;;;;;;;;5055662;28;20028;-60
2022/01/30 03:18:28;;;;;;;0.00;0.00;;;;;;;;;;5055505;28;20021;-61
2022/01/30 03:20:54;;;;;;;0.00;0.00;;;;;;;;;;5055594;28;20419;-60
2022/01/30 03:23:19;;;;;;;0.00;0.00;;;;;;;;;;5055412;28;20021;-61
2022/01/30 03:25:44;;;;;;;0.00;0.00;;;;;;;;;;5055266;28;20457;-60
2022/01/30 03:28:09;;;;;;;0.00;0.00;;;;;;;;;;5055475;28;20021;-61
2022/01/30 03:30:36;;;;;;;0.00;0.00;;;;;;;;;;5055094;28;20275;-61
2022/01/30 03:33:01;;;;;;;0.00;0.00;;;;;;;;;;5055446;28;20273;-61
2022/01/30 03:35:26;;;;;;;0.00;0.00;;;;;;;;;;5055119;28;20453;-60
2022/01/30 03:37:52;;;;;;;0.00;0.00;;;;;;;;;;5055143;28;20045;-61
2022/01/30 03:40:17;;;;;;;0.00;0.00;;;;;;;;;;5055203;28;20250;-60
2022/01/30 03:42:42;;;;;;;0.00;0.00;;;;;;;;;;5054941;28;20500;-61
2022/01/30 03:45:07;;;;;;;0.00;0.00;;;;;;;;;;5055222;28;20071;-61
2022/01/30 03:47:33;;;;;;;0.00;0.00;;;;;;;;;;5054793;28;20040;-60
2022/01/30 03:49:58;;;;;;;0.00;0.00;;;;;;;;;;5054908;28;20033;-61
2022/01/30 03:52:23;;;;;;;0.00;0.00;;;;;;;;;;5054887;28;20025;-61
2022/01/30 03:54:48;;;;;;;0.00;0.00;;;;;;;;;;5055266;28;20013;-60
2022/01/30 03:57:13;;;;;;;0.00;0.00;;;;;;;;;;5054920;28;20465;-60
2022/01/30 03:59:39;;;;;;;0.00;0.00;;;;;;;;;;5054584;28;20063;-61
2022/01/30 04:02:04;;;;;;;0.00;0.00;;;;;;;;;;5054904;28;20350;-61
2022/01/30 04:04:31;;;;;;;0.00;0.00;;;;;;;;;;5053329;28;20057;-61
2022/01/30 04:06:57;;;;;;;0.00;0.00;;;;;;;;;;5054713;28;20438;-61
2022/01/30 04:09:23;;;;;;;0.00;0.00;;;;;;;;;;5054442;28;20028;-61
2022/01/30 04:11:48;;;;;;;0.00;0.00;;;;;;;;;;5054565;28;20113;-61
2022/01/30 04:14:13;;;;;;;0.00;0.00;;;;;;;;;;5054639;28;20067;-61
2022/01/30 04:16:39;;;;;;;0.00;0.00;;;;;;;;;;5054392;28;20021;-61
2022/01/30 04:19:04;;;;;;;0.00;0.00;;;;;;;;;;5054901;28;20025;-61
2022/01/30 04:21:30;;;;;;;0.00;0.00;;;;;;;;;;5054197;28;20024;-61
2022/01/30 04:23:55;;;;;;;0.00;0.00;;;;;;;;;;5054715;28;20028;-61
2022/01/30 04:26:20;;;;;;;0.00;0.00;;;;;;;;;;5054293;28;20017;-61
2022/01/30 04:28:45;;;;;;;0.00;0.00;;;;;;;;;;5054202;28;20032;-61
2022/01/30 04:31:12;;;;;;;0.00;0.00;;;;;;;;;;5054344;28;20017;-61
2022/01/30 04:33:38;;;;;;;0.00;0.00;;;;;;;;;;5052677;28;20017;-61
2022/01/30 04:36:06;;;;;;;0.00;0.00;;;;;;;;;;5054232;28;20354;-60
2022/01/30 04:38:43;;;;;;;0.00;0.00;;;;;;;;;;5053979;28;20079;-60
2022/01/30 04:41:51;;;;;;;0.00;0.00;;;;;;;;;;5054221;28;20032;-61
2022/01/30 05:02:32;;;;;;;0.00;0.00;;;;;;;;;;5053743;28;20021;-60
2022/01/30 05:05:21;;;;;;;0.00;0.00;;;;;;;;;;5053420;28;20031;-60
2022/01/30 05:07:43;;;;;;;0.00;0.00;;;;;;;;;;5052977;28;20511;-60
2022/01/30 05:10:08;;;;;;;0.00;0.00;;;;;;;;;;5053532;28;20024;-60
2022/01/30 05:12:49;;;;;;;0.00;0.00;;;;;;;;;;5053168;28;20067;-61
2022/01/30 05:15:17;;;;;;;0.00;0.00;;;;;;;;;;5035387;28;20017;-61
2022/01/30 05:17:42;;;;;;;0.00;0.00;;;;;;;;;;5052991;28;20024;-60
2022/01/30 05:20:08;;;;;;;0.00;0.00;;;;;;;;;;5053459;28;20020;-61
2022/01/30 05:22:33;;;;;;;0.00;0.00;;;;;;;;;;5053033;28;20029;-61
2022/01/30 05:24:59;;;;;;;0.00;0.00;;;;;;;;;;5053285;28;20020;-60
2022/01/30 05:27:24;;;;;;;0.00;0.00;;;;;;;;;;5035096;28;20025;-61
2022/01/30 05:29:50;;;;;;;0.00;0.00;;;;;;;;;;5052997;28;20059;-60
2022/01/30 05:32:15;;;;;;;0.00;0.00;;;;;;;;;;5053085;28;20461;-61
2022/01/30 05:34:41;;;;;;;0.00;0.00;;;;;;;;;;5052931;28;20024;-61
2022/01/30 05:37:08;;;;;;;0.00;0.00;;;;;;;;;;5035191;28;20052;-61
2022/01/30 05:39:33;;;;;;;0.00;0.00;;;;;;;;;;5052633;28;20053;-61
2022/01/30 05:41:59;;;;;;;0.00;0.00;;;;;;;;;;5052866;28;20059;-61
2022/01/30 05:44:38;;;;;;;0.00;0.00;;;;;;;;;;5052636;28;20016;-60
2022/01/30 05:47:04;;;;;;;0.00;0.00;;;;;;;;;;5052897;28;20049;-61
2022/01/30 05:49:30;;;;;;;0.00;0.00;;;;;;;;;;5052460;28;20447;-61
2022/01/30 05:51:55;;;;;;;0.00;0.00;;;;;;;;;;5052729;28;20108;-61
2022/01/30 05:54:20;;;;;;;0.07;0.00;;;;;;;;;;5052619;28;20464;-61
2022/01/30 05:56:45;;;;;;;0.00;0.00;;;;;;;;;;5052886;28;20329;-61
2022/01/30 05:59:10;;;;;;;0.00;0.00;;;;;;;;;;5052650;28;20028;-61
2022/01/30 06:01:36;;;;;;;0.00;0.00;;;;;;;;;;5052335;28;20040;-61
2022/01/30 06:04:01;;;;;;;0.00;0.00;;;;;;;;;;5052367;28;20258;-61
2022/01/30 06:06:26;;;;;;;0.00;0.00;;;;;;;;;;5052275;28;20045;-60
2022/01/30 06:09:01;;;;;;;0.00;0.00;;;;;;;;;;5052406;28;20468;-60
2022/01/30 06:11:27;;;;;;;0.00;0.00;;;;;;;;;;5052256;28;20013;-61
2022/01/30 06:13:52;;;;;;;0.00;0.00;;;;;;;;;;5052298;28;20393;-61
2022/01/30 06:16:17;;;;;;;0.00;0.00;;;;;;;;;;5052399;28;20349;-61
2022/01/30 06:18:43;;;;;;;0.00;0.00;;;;;;;;;;5052201;28;20099;-60
2022/01/30 06:21:08;;;;;;;0.00;0.00;;;;;;;;;;5052411;28;20063;-61
2022/01/30 06:23:33;;;;;;;0.03;0.00;;;;;;;;;;5052027;28;20020;-61
2022/01/30 06:25:59;;;;;;;0.00;0.00;;;;;;;;;;5052266;28;20020;-61
2022/01/30 06:28:24;;;;;;;0.00;0.00;;;;;;;;;;5051455;28;20388;-61
2022/01/30 06:30:49;;;;;;;0.00;0.00;;;;;;;;;;5050827;28;20021;-60
2022/01/30 06:33:15;;;;;;;0.00;0.00;;;;;;;;;;5052267;28;20476;-61
2022/01/30 06:35:40;;;;;;;0.00;0.00;;;;;;;;;;5051880;28;20075;-61
2022/01/30 06:38:05;;;;;;;0.00;0.00;;;;;;;;;;5052217;28;20071;-61
2022/01/30 06:40:31;;;;;;;0.00;0.00;;;;;;;;;;5051955;28;20061;-61
2022/01/30 06:42:56;;;;;;;0.00;0.00;;;;;;;;;;5052041;28;20249;-61
2022/01/30 06:45:22;;;;;;;0.00;0.00;;;;;;;;;;5051956;28;20457;-61
2022/01/30 06:47:47;;;;;;;0.00;0.00;;;;;;;;;;5051960;28;20025;-61
2022/01/30 06:50:12;;;;;;;0.00;0.00;;;;;;;;;;5050745;28;20404;-60
2022/01/30 06:52:38;;;;;;;0.00;0.00;;;;;;;;;;5050811;28;20530;-60
2022/01/30 06:55:04;;;;;;;0.00;0.00;;;;;;;;;;5052029;28;20063;-61
2022/01/30 06:57:29;;;;;;;0.00;0.00;;;;;;;;;;5051874;28;20024;-61
2022/01/30 06:59:55;;;;;;;0.00;0.00;;;;;;;;;;5051980;28;20017;-61
2022/01/30 07:02:20;;;;;;;0.00;0.00;;;;;;;;;;5051852;28;20303;-61
2022/01/30 07:04:45;;;;;;;0.00;0.00;;;;;;;;;;5051954;28;20025;-61
2022/01/30 07:07:10;;;;;;;0.00;0.00;;;;;;;;;;5033799;28;20396;-61
2022/01/30 07:09:35;;;;;;;0.00;0.00;;;;;;;;;;5051585;28;20407;-60
2022/01/30 07:12:01;;;;;;;0.00;0.00;;;;;;;;;;5034107;28;20021;-61
2022/01/30 07:14:26;;;;;;;0.00;0.00;;;;;;;;;;5051600;28;20485;-61
2022/01/30 07:16:51;;;;;;;0.00;0.00;;;;;;;;;;5051798;28;20021;-61
2022/01/30 07:19:17;;;;;;;0.00;0.00;;;;;;;;;;5051621;28;20028;-61
2022/01/30 07:21:42;;;;;;;0.00;0.00;;;;;;;;;;5051587;28;20047;-61
2022/01/30 07:24:07;;;;;;;0.00;0.00;;;;;;;;;;5051822;28;20277;-61
2022/01/30 07:26:33;;;;;;;0.00;0.00;;;;;;;;;;5051722;28;20029;-61
2022/01/30 07:28:59;;;;;;;0.00;0.00;;;;;;;;;;5051653;28;20067;-61
2022/01/30 07:31:24;;;;;;;0.00;0.00;;;;;;;;;;5051454;28;20461;-61
2022/01/30 07:33:49;;;;;;;0.00;0.00;;;;;;;;;;5051671;28;20021;-61
2022/01/30 07:36:14;;;;;;;0.00;0.00;;;;;;;;;;5051923;28;20249;-61
2022/01/30 07:38:41;;;;;;;0.00;0.00;;;;;;;;;;5051991;28;20066;-61
2022/01/30 07:41:07;;;;;;;0.00;0.00;;;;;;;;;;5055267;28;20015;-61
2022/01/30 07:43:32;;;;;;;0.00;0.00;;;;;;;;;;5055026;28;20031;-61
2022/01/30 07:45:57;;;;;;;0.00;0.00;;;;;;;;;;5055508;28;20064;-61
2022/01/30 07:48:22;;;;;;;0.00;0.00;;;;;;;;;;5054995;28;20052;-60
2022/01/30 07:50:47;;;;;;;0.00;0.00;;;;;;;;;;5055094;28;20073;-61
2022/01/30 07:53:13;;;;;;;0.00;0.00;;;;;;;;;;5054959;28;20021;-61
2022/01/30 07:55:38;;;;;;;0.00;0.00;;;;;;;;;;5054899;28;20666;-61
2022/01/30 07:58:03;;;;;;;0.00;0.00;;;;;;;;;;5055088;28;20025;-61
2022/01/30 08:00:28;;;;;;;0.00;0.00;;;;;;;;;;5054827;28;20021;-61
2022/01/30 08:02:53;;;;;;;0.00;0.00;;;;;;;;;;5054930;28;20040;-61
2022/01/30 08:05:19;;;;;;;0.00;0.00;;;;;;;;;;5054623;28;20067;-61
2022/01/30 08:07:44;;;;;;;0.00;0.00;;;;;;;;;;5054551;28;20053;-61
2022/01/30 08:10:09;;;;;;;0.00;0.00;;;;;;;;;;5054737;28;20282;-61
2022/01/30 08:12:35;;;;;;;0.00;0.00;;;;;;;;;;5054474;28;20255;-61
2022/01/30 08:15:01;;;;;;;0.00;0.00;;;;;;;;;;5054608;28;20029;-61
2022/01/30 08:17:26;;;;;;;0.00;0.00;;;;;;;;;;5036590;28;20025;-61
2022/01/30 08:19:51;;;;;;;0.00;0.00;;;;;;;;;;5036686;28;20029;-61
2022/01/30 08:22:17;;;;;;;0.00;0.00;;;;;;;;;;5054786;28;20575;-61
2022/01/30 08:24:42;;;;;;;0.00;0.00;;;;;;;;;;5054406;28;20024;-61
2022/01/30 08:27:07;;;;;;;0.00;0.00;;;;;;;;;;5054324;28;20021;-61
2022/01/30 08:29:32;;;;;;;0.00;0.00;;;;;;;;;;5054130;28;20274;-61
2022/01/30 08:31:58;;;;;;;0.00;0.00;;;;;;;;;;5054323;28;20293;-61
2022/01/30 08:34:23;;;;;;;0.00;0.00;;;;;;;;;;5054163;28;20025;-61
2022/01/30 08:36:48;;;;;;;0.00;0.00;;;;;;;;;;5054290;28;20381;-61
2022/01/30 08:39:14;;;;;;;0.00;0.00;;;;;;;;;;5054050;28;20025;-61
2022/01/30 08:41:39;;;;;;;0.00;0.00;;;;;;;;;;5053993;28;20487;-61
2022/01/30 08:44:04;;;;;;;0.00;0.00;;;;;;;;;;5054107;28;20060;-61
2022/01/30 08:46:29;;;;;;;0.00;0.00;;;;;;;;;;5053877;28;20032;-61
2022/01/30 08:48:54;;;;;;;0.00;0.00;;;;;;;;;;5054018;28;20025;-61
2022/01/30 08:51:21;;;;;;;0.00;0.00;;;;;;;;;;5053107;28;20035;-61
2022/01/30 08:53:46;;;;;;;0.00;0.00;;;;;;;;;;5053595;28;20021;-61
2022/01/30 08:56:12;;;;;;;0.00;0.00;;;;;;;;;;5053926;28;20055;-61
2022/01/30 08:58:37;;;;;;;0.00;0.00;;;;;;;;;;5053739;28;20300;-61
2022/01/30 09:01:03;;;;;;;0.00;0.00;;;;;;;;;;5052470;28;20048;-61
2022/01/30 09:03:28;;;;;;;0.00;0.00;;;;;;;;;;5053602;28;20036;-61
2022/01/30 09:05:53;;;;;;;0.00;0.00;;;;;;;;;;5052435;28;20286;-61
2022/01/30 09:08:18;;;;;;;0.00;0.00;;;;;;;;;;5053654;28;20021;-61
2022/01/30 09:10:44;;;;;;;0.00;0.00;;;;;;;;;;5053438;28;20285;-61
2022/01/30 09:13:09;;;;;;;0.00;0.00;;;;;;;;;;5053498;28;20029;-61
2022/01/30 09:15:42;;;;;;;0.00;0.00;;;;;;;;;;5053333;28;20122;-61
2022/01/30 09:18:09;;;;;;;0.00;0.00;;;;;;;;;;5053590;28;20041;-61
2022/01/30 09:20:40;;;;;;;0.00;0.00;;;;;;;;;;5053245;28;20023;-61
2022/01/30 09:23:05;;;;;;;0.00;0.00;;;;;;;;;;5053305;28;20036;-61
2022/01/30 09:25:30;;;;;;;0.00;0.00;;;;;;;;;;5053474;28;20033;-61
2022/01/30 09:27:55;;;;;;;0.00;0.00;;;;;;;;;;5053218;28;20024;-61
2022/01/30 09:30:21;;;;;;;0.00;0.00;;;;;;;;;;5053063;28;20031;-61
2022/01/30 09:32:47;;;;;;;0.00;0.00;;;;;;;;;;5052515;28;20250;-61
2022/01/30 09:35:12;;;;;;;0.00;0.00;;;;;;;;;;5053029;28;20031;-61
2022/01/30 09:37:37;;;;;;;0.00;0.00;;;;;;;;;;5052835;28;20420;-61
2022/01/30 09:40:03;;;;;;;0.00;0.00;;;;;;;;;;5053095;28;20017;-61
2022/01/30 09:42:28;;;;;;;0.00;0.00;;;;;;;;;;5052741;28;20024;-61
2022/01/30 09:44:53;;;;;;;0.00;0.00;;;;;;;;;;5053029;28;20029;-61
2022/01/30 09:47:19;;;;;;;0.00;0.00;;;;;;;;;;5052794;28;20066;-61
2022/01/30 09:49:49;;;;;;;0.00;0.00;;;;;;;;;;5052670;28;20269;-61
2022/01/30 09:52:14;;;;;;;0.00;0.00;;;;;;;;;;5052806;28;20017;-61
2022/01/30 09:54:39;;;;;;;0.00;0.00;;;;;;;;;;5052687;28;20153;-61
2022/01/30 09:57:04;;;;;;;0.00;0.00;;;;;;;;;;5052738;28;20345;-61
2022/01/30 09:59:30;;;;;;;0.00;0.00;;;;;;;;;;5052525;28;20100;-61
2022/01/30 10:01:55;;;;;;;0.00;0.00;;;;;;;;;;5052204;28;20163;-61
2022/01/30 10:04:20;;;;;;;0.00;0.00;;;;;;;;;;5051787;28;20017;-61
2022/01/30 10:06:49;;;;;;;0.00;0.00;;;;;;;;;;5052481;28;20059;-61
2022/01/30 10:09:25;;;;;;;0.00;0.00;;;;;;;;;;5052428;28;20265;-61
2022/01/30 10:12:00;;;;;;;0.00;0.00;;;;;;;;;;5052546;28;20023;-61
2022/01/30 10:14:26;;;;;;;0.00;0.00;;;;;;;;;;5052389;28;20400;-61
2022/01/30 10:16:51;;;;;;;0.00;0.00;;;;;;;;;;5052540;28;20009;-61
2022/01/30 10:19:20;;;;;;;0.00;0.00;;;;;;;;;;5052304;28;20192;-61
2022/01/30 10:21:46;;;;;;;0.00;0.00;;;;;;;;;;5052338;28;20028;-61
2022/01/30 10:24:21;;;;;;;0.00;0.00;;;;;;;;;;5052968;28;20056;-61
2022/01/30 10:26:47;;;;;;;0.00;0.00;;;;;;;;;;5052309;28;20087;-61
2022/01/30 10:29:23;;;;;;;0.00;0.00;;;;;;;;;;5052428;28;20472;-61
2022/01/30 10:31:57;;;;;;;0.00;0.00;;;;;;;;;;5052507;28;20021;-61
2022/01/30 10:34:22;;;;;;;;;;;;;;;;;;5052580;28;20045;-61
2022/01/30 10:36:47;;;;;;;0.00;0.00;;;;;;;;;;5052245;28;19966;-61
2022/01/30 10:39:16;;;;;;;0.00;0.00;;;;;;;;;;5052111;28;20020;-61
2022/01/30 10:41:45;;;;;;;0.00;0.00;;;;;;;;;;5052247;28;20441;-61
2022/01/30 10:44:10;;;;;;;0.00;0.00;;;;;;;;;;5037682;28;20021;-61
2022/01/30 10:46:40;;;;;;;0.00;0.00;;;;;;;;;;5051958;28;20021;-61
2022/01/30 10:49:09;;;;;;;0.00;0.00;;;;;;;;;;5051913;28;20749;-61
2022/01/30 10:51:35;;;;;;;0.00;0.00;;;;;;;;;;5051838;28;20021;-61
2022/01/30 10:54:11;;;;;;;0.00;0.00;;;;;;;;;;5052012;28;20071;-61
2022/01/30 10:56:37;;;;;;;0.00;0.00;;;;;;;;;;5051755;28;20117;-61
2022/01/30 10:59:05;;;;;;;0.00;0.00;;;;;;;;;;5051914;28;20109;-61
2022/01/30 11:01:31;;;;;;;0.00;0.00;;;;;;;;;;5051807;28;20013;-61
2022/01/30 11:04:00;;;;;;;0.00;0.00;;;;;;;;;;5051918;28;20063;-61
2022/01/30 11:06:26;;;;;;;0.00;0.00;;;;;;;;;;5051588;28;20365;-61
2022/01/30 11:08:53;;;;;;;0.00;0.00;;;;;;;;;;5051842;28;20021;-61
2022/01/30 11:11:30;;;;;;;0.00;0.00;;;;;;;;;;5051727;28;20048;-61
2022/01/30 11:14:16;;;;;;;0.00;0.00;;;;;;;;;;5052675;28;20017;-61
2022/01/30 11:19:26;;;;;;;0.00;0.00;;;;;;;;;;5047541;28;20039;-61
2022/01/30 11:21:52;;;;;;;0.00;0.00;;;;;;;;;;5053059;28;20025;-61
2022/01/30 11:24:19;;;;;;;0.00;0.00;;;;;;;;;;5055587;28;20066;-61
2022/01/30 11:26:45;;;;;;;0.00;0.00;;;;;;;;;;5055439;28;20029;-61
2022/01/30 11:29:10;;;;;;;0.00;0.00;;;;;;;;;;5055526;28;20303;-61
2022/01/30 11:31:36;;;;;;;0.00;0.00;;;;;;;;;;5055381;28;20025;-61
2022/01/30 11:34:01;;;;;;;0.00;0.00;;;;;;;;;;5055513;28;20013;-61
2022/01/30 11:36:26;;;;;;;0.00;0.00;;;;;;;;;;5037310;28;20013;-61
2022/01/30 11:38:52;;;;;;;0.00;0.00;;;;;;;;;;5055341;28;20095;-61
2022/01/30 11:41:18;;;;;;;0.00;0.00;;;;;;;;;;5055297;28;20090;-61
2022/01/30 11:44:01;;;;;;;0.00;0.00;;;;;;;;;;5055088;28;20180;-61
2022/01/30 11:46:27;;;;;;;0.00;0.00;;;;;;;;;;5055052;28;20464;-61
2022/01/30 11:49:09;;;;;;;0.00;0.00;;;;;;;;;;5055123;28;20021;-61
2022/01/30 11:51:47;;;;;;;0.00;0.00;;;;;;;;;;5054916;28;20488;-61
2022/01/30 11:54:31;;;;;;;0.00;0.00;;;;;;;;;;5055147;28;20045;-61
2022/01/30 11:56:56;;;;;;;0.00;0.00;;;;;;;;;;5055374;28;20404;-61
2022/01/30 11:59:38;;;;;;;0.00;0.00;;;;;;;;;;5054871;28;20021;-61
2022/01/30 12:02:22;;;;;;;0.00;0.00;;;;;;;;;;5055039;28;20407;-61
2022/01/30 12:04:56;;;;;;;0.00;0.00;;;;;;;;;;5054745;28;20063;-61
2022/01/30 12:07:21;;;;;;;;;;;;;;;;;;5054936;28;20064;-61
2022/01/30 12:09:46;;;;;;;0.00;0.00;;;;;;;;;;5054604;28;19959;-61
2022/01/30 12:12:12;;;;;;;0.00;0.00;;;;;;;;;;5054770;28;20032;-61
2022/01/30 12:14:43;;;;;;;0.00;0.00;;;;;;;;;;5054701;28;20242;-61
2022/01/30 12:17:08;;;;;;;0.00;0.00;;;;;;;;;;5054694;28;20484;-61
2022/01/30 12:19:33;;;;;;;0.00;0.00;;;;;;;;;;5054457;28;20025;-61
2022/01/30 12:21:58;;;;;;;0.00;0.00;;;;;;;;;;5054500;28;20261;-61
2022/01/30 12:24:28;;;;;;;0.00;0.00;;;;;;;;;;5054330;28;20048;-61
2022/01/30 12:27:02;;;;;;;0.00;0.00;;;;;;;;;;5053293;28;20515;-61
2022/01/30 12:29:27;;;;;;;;;;;;;;;;;;5054679;28;20029;-61
2022/01/30 12:31:52;;;;;;;0.00;0.00;;;;;;;;;;5054327;28;20015;-61
2022/01/30 12:34:18;;;;;;;0.00;0.00;;;;;;;;;;5054424;28;20013;-61
2022/01/30 12:36:52;;;;;;;0.00;0.00;;;;;;;;;;5054404;28;20500;-61
2022/01/30 12:39:21;;;;;;;0.00;0.00;;;;;;;;;;5054513;28;20465;-61
2022/01/30 12:41:47;;;;;;;0.00;0.00;;;;;;;;;;5054409;28;20062;-61
2022/01/30 12:44:13;;;;;;;0.00;0.00;;;;;;;;;;5053959;28;20099;-61
2022/01/30 12:46:46;;;;;;;0.00;0.00;;;;;;;;;;5053935;28;20461;-61
2022/01/30 12:49:16;;;;;;;0.05;0.00;;;;;;;;;;5054051;28;20035;-61
2022/01/30 12:51:43;;;;;;;0.00;0.00;;;;;;;;;;5053840;28;20017;-61
2022/01/30 12:54:09;;;;;;;0.00;0.00;;;;;;;;;;5036169;28;20461;-61
2022/01/30 12:56:36;;;;;;;0.00;0.00;;;;;;;;;;5053638;28;20020;-61
2022/01/30 12:59:06;;;;;;;0.00;0.00;;;;;;;;;;5054078;28;20040;-61
2022/01/30 13:01:32;;;;;;;0.00;0.00;;;;;;;;;;5053619;28;20075;-61
2022/01/30 13:04:01;;;;;;;0.00;0.00;;;;;;;;;;5053785;28;20400;-61
2022/01/30 13:06:31;;;;;;;0.00;0.00;;;;;;;;;;5053407;28;20117;-61
2022/01/30 13:08:56;;;;;;;0.00;0.00;;;;;;;;;;5053624;28;20021;-61
2022/01/30 13:11:22;;;;;;;0.00;0.00;;;;;;;;;;5053580;28;20023;-61
2022/01/30 13:13:55;;;;;;;0.00;0.00;;;;;;;;;;5053487;28;20245;-61
2022/01/30 13:16:20;;;;;;;0.00;0.00;;;;;;;;;;5053458;28;20430;-61
2022/01/30 13:18:45;;;;;;;0.00;0.00;;;;;;;;;;5053375;28;20013;-61
2022/01/30 13:21:11;;;;;;;0.00;0.00;;;;;;;;;;5053784;28;20025;-61
2022/01/30 13:23:36;;;;;;;0.00;0.00;;;;;;;;;;5053286;28;20028;-61
2022/01/30 13:26:02;;;;;;;0.00;0.00;;;;;;;;;;5053351;28;20242;-61
2022/01/30 13:28:29;;;;;;;0.00;0.00;;;;;;;;;;5053152;28;20044;-61
2022/01/30 13:31:10;;;;;;;0.00;0.00;;;;;;;;;;5053239;28;20111;-61
2022/01/30 13:33:35;;;;;;;0.00;0.00;;;;;;;;;;5053059;28;20009;-61
2022/01/30 13:36:01;;;;;;;0.00;0.00;;;;;;;;;;5053257;28;20372;-61
2022/01/30 13:38:27;;;;;;;0.00;0.00;;;;;;;;;;5052723;28;20040;-62
2022/01/30 13:40:57;;;;;;;0.00;0.00;;;;;;;;;;5053040;28;20441;-61
2022/01/30 13:43:27;;;;;;;0.00;0.00;;;;;;;;;;5052645;28;20094;-61
2022/01/30 13:48:21;;;;;;;0.00;0.00;;;;;;;;;;5053183;28;20056;-61
2022/01/30 13:50:52;;;;;;;0.00;0.00;;;;;;;;;;5052736;28;20422;-61
2022/01/30 13:53:17;;;;;;;0.00;0.00;;;;;;;;;;5053125;28;20131;-61
2022/01/30 13:56:01;;;;;;;0.00;0.00;;;;;;;;;;5052672;28;20100;-61
2022/01/30 13:58:41;;;;;;;0.00;0.00;;;;;;;;;;5034696;28;20021;-61
2022/01/30 14:01:10;;;;;;;0.00;0.00;;;;;;;;;;5052752;28;20492;-61
2022/01/30 14:03:36;;;;;;;0.00;0.00;;;;;;;;;;5052171;28;20066;-61
2022/01/30 14:06:02;;;;;;;0.00;0.00;;;;;;;;;;5052503;28;20041;-61
2022/01/30 14:08:27;;;;;;;0.00;0.00;;;;;;;;;;5052407;28;20380;-61
2022/01/30 14:11:08;;;;;;;0.00;0.00;;;;;;;;;;5052393;28;20021;-61
2022/01/30 14:13:38;;;;;;;0.00;0.00;;;;;;;;;;5052290;28;20096;-61
2022/01/30 14:16:05;;;;;;;0.00;0.00;;;;;;;;;;5052463;28;20468;-61
2022/01/30 14:18:35;;;;;;;0.00;0.00;;;;;;;;;;5052193;28;20100;-61
2022/01/30 14:21:00;;;;;;;0.00;0.00;;;;;;;;;;5052539;28;20506;-61
2022/01/30 14:23:33;;;;;;;0.00;0.00;;;;;;;;;;5034262;28;20140;-61
2022/01/30 14:25:58;;;;;;;0.00;0.00;;;;;;;;;;5052369;28;20471;-61
2022/01/30 14:28:25;;;;;;;0.00;0.00;;;;;;;;;;5052187;28;20546;-61
2022/01/30 14:30:51;;;;;;;0.00;0.00;;;;;;;;;;5052181;28;20384;-61
2022/01/30 14:33:16;;;;;;;0.00;0.00;;;;;;;;;;5052332;28;20018;-61
2022/01/30 14:35:42;;;;;;;0.00;0.00;;;;;;;;;;5052081;28;20376;-61
2022/01/30 14:38:08;;;;;;;0.00;0.00;;;;;;;;;;5052292;28;20096;-61
2022/01/30 14:40:37;;;;;;;0.00;0.00;;;;;;;;;;5033973;28;20033;-61
2022/01/30 14:43:06;;;;;;;0.00;0.00;;;;;;;;;;5052188;28;20024;-61
2022/01/30 14:45:32;;;;;;;0.00;0.00;;;;;;;;;;5051974;28;20060;-61
2022/01/30 14:47:58;;;;;;;0.00;0.00;;;;;;;;;;5052086;28;20437;-61
2022/01/30 14:50:23;;;;;;;0.00;0.00;;;;;;;;;;5055323;28;20112;-61
2022/01/30 14:52:48;;;;;;;0.00;0.00;;;;;;;;;;5056135;28;20053;-61
2022/01/30 14:55:13;;;;;;;0.00;0.00;;;;;;;;;;5056212;28;20460;-61
2022/01/30 14:57:39;;;;;;;0.00;0.00;;;;;;;;;;5056058;28;20518;-61
2022/01/30 15:00:04;;;;;;;0.00;0.00;;;;;;;;;;5056215;28;20257;-61
2022/01/30 15:02:29;;;;;;;0.00;0.00;;;;;;;;;;5055771;28;20356;-61
2022/01/30 15:04:55;;;;;;;0.00;0.00;;;;;;;;;;5056073;28;20021;-61
2022/01/30 15:07:20;;;;;;;0.00;0.00;;;;;;;;;;5055699;28;20286;-61
2022/01/30 15:09:45;;;;;;;0.00;0.00;;;;;;;;;;5056039;28;20021;-61
2022/01/30 15:12:12;;;;;;;0.00;0.00;;;;;;;;;;5055900;28;20024;-61
2022/01/30 15:14:38;;;;;;;0.00;0.00;;;;;;;;;;5055517;28;20020;-61
2022/01/30 15:17:06;;;;;;;0.00;0.00;;;;;;;;;;5056191;28;20377;-61
2022/01/30 15:19:31;;;;;;;0.00;0.00;;;;;;;;;;5055571;28;20017;-61
2022/01/30 15:21:56;;;;;;;0.00;0.00;;;;;;;;;;5055757;28;20087;-61
2022/01/30 15:24:21;;;;;;;0.00;0.00;;;;;;;;;;5055524;28;20025;-61
2022/01/30 15:26:46;;;;;;;0.00;0.00;;;;;;;;;;5055530;28;20281;-61
2022/01/30 15:29:13;;;;;;;0.00;0.00;;;;;;;;;;5055527;28;20621;-61
2022/01/30 15:31:39;;;;;;;0.00;0.00;;;;;;;;;;5055322;28;20257;-61
2022/01/30 15:34:04;;;;;;;0.00;0.00;;;;;;;;;;5055870;28;20016;-61
2022/01/30 15:36:29;;;;;;;0.00;0.00;;;;;;;;;;5055260;28;20021;-61
2022/01/30 15:38:55;;;;;;;0.00;0.00;;;;;;;;;;5055372;28;20412;-61
2022/01/30 15:41:20;;;;;;;0.00;0.00;;;;;;;;;;5037389;28;20168;-61